createdAt,value
2019-04-22T00:01:24.791Z,32.23
2019-04-22T00:03:55.178Z,32.70
2019-04-22T00:06:48.034Z,32.10
2019-04-22T00:09:19.526Z,33.47
2019-04-22T00:11:59.242Z,29.80
2019-04-22T00:14:11.916Z,32.47
2019-04-22T00:17:10.005Z,34.33
2019-04-22T00:19:20.886Z,36.23
2019-04-22T00:21:48.989Z,31.10
2019-04-22T00:24:20.465Z,33.57
2019-04-22T00:26:50.303Z,32.57
2019-04-22T00:29:49.622Z,33.50
2019-04-22T00:32:05.652Z,32.40
2019-04-22T00:34:43.766Z,34.17
2019-04-22T00:37:16.792Z,34.53
2019-04-22T00:39:46.651Z,33.30
2019-04-22T00:42:18.189Z,34.23
2019-04-22T00:44:47.077Z,32.63
2019-04-22T00:47:23.218Z,34.07
2019-04-22T00:52:16.510Z,33.33
2019-04-22T00:54:57.217Z,34.23
2019-04-22T00:57:15.340Z,43.33
2019-04-22T00:59:52.261Z,36.65
2019-04-22T01:02:20.275Z,33.97
2019-04-22T01:05:09.790Z,32.03
2019-04-22T01:07:18.920Z,38.10
2019-04-22T01:09:53.641Z,34.13
2019-04-22T01:12:21.261Z,34.13
2019-04-22T01:14:49.607Z,37.13
2019-04-22T01:17:19.650Z,45.90
2019-04-22T01:19:56.311Z,32.60
2019-04-22T01:22:22.122Z,37.93
2019-04-22T01:24:52.693Z,38.65
2019-04-22T01:27:19.064Z,36.83
2019-04-22T01:29:46.312Z,38.30
2019-04-22T01:32:13.218Z,39.03
2019-04-22T01:34:51.413Z,44.53
2019-04-22T01:37:23.946Z,41.27
2019-04-22T01:42:35.622Z,39.75
2019-04-22T01:44:59.595Z,36.77
2019-04-22T01:47:34.237Z,41.55
2019-04-22T01:50:02.525Z,43.20
2019-04-22T01:52:31.043Z,51.73
2019-04-22T01:55:04.472Z,41.97
2019-04-22T01:57:28.456Z,38.50
2019-04-22T01:59:58.704Z,45.60
2019-04-22T02:02:36.037Z,44.07
2019-04-22T02:05:10.606Z,38.10
2019-04-22T02:07:36.529Z,41.63
2019-04-22T02:10:02.247Z,45.00
2019-04-22T02:15:06.576Z,43.20
2019-04-22T02:17:39.749Z,46.87
2019-04-22T02:20:12.065Z,44.03
2019-04-22T02:23:00.395Z,40.73
2019-04-22T02:25:13.477Z,39.87
2019-04-22T02:27:45.797Z,43.23
2019-04-22T02:30:05.872Z,42.45
2019-04-22T02:33:13.410Z,44.27
2019-04-22T02:35:24.125Z,45.28
2019-04-22T02:37:46.235Z,44.50
2019-04-22T02:40:17.452Z,46.02
2019-04-22T02:42:42.881Z,48.40
2019-04-22T02:45:19.123Z,48.72
2019-04-22T02:47:42.254Z,46.10
2019-04-22T02:50:08.772Z,45.60
2019-04-22T02:52:43.217Z,44.80
2019-04-22T02:55:15.417Z,43.83
2019-04-22T02:57:57.097Z,47.10
2019-04-22T03:00:27.341Z,49.00
2019-04-22T03:03:04.072Z,49.67
2019-04-22T03:07:55.929Z,43.63
2019-04-22T03:10:18.770Z,50.50
2019-04-22T03:12:41.900Z,49.30
2019-04-22T03:15:12.012Z,45.33
2019-04-22T03:17:51.634Z,46.92
2019-04-22T03:20:22.048Z,51.43
2019-04-22T03:22:59.562Z,44.00
2019-04-22T03:25:51.428Z,50.93
2019-04-22T03:27:47.840Z,47.13
2019-04-22T03:30:48.101Z,52.63
2019-04-22T03:37:52.960Z,53.37
2019-04-22T03:40:30.747Z,50.57
2019-04-22T03:42:55.707Z,48.77
2019-04-22T03:55:22.952Z,52.07
2019-04-22T03:57:55.578Z,63.87
2019-04-22T04:00:45.553Z,47.17
2019-04-22T04:03:01.106Z,50.93
2019-04-22T04:13:01.883Z,55.37
2019-04-22T04:15:23.702Z,50.17
2019-04-22T04:30:30.031Z,48.73
2019-04-22T04:37:55.928Z,56.58
2019-04-22T04:42:58.724Z,46.07
2019-04-22T04:45:45.052Z,57.70
2019-04-22T04:47:57.968Z,46.63
2019-04-22T04:50:35.898Z,56.17
2019-04-22T04:53:06.356Z,49.00
2019-04-22T04:58:13.039Z,50.53
2019-04-22T05:02:58.228Z,50.87
2019-04-22T05:10:41.209Z,57.03
2019-04-22T05:18:31.237Z,56.10
2019-04-22T05:23:19.407Z,53.40
2019-04-22T05:25:24.873Z,61.07
2019-04-22T05:28:11.794Z,55.90
2019-04-22T05:30:26.720Z,58.43
2019-04-22T05:32:54.171Z,62.10
2019-04-22T05:35:26.694Z,65.52
2019-04-22T05:38:04.200Z,68.40
2019-04-22T05:40:32.569Z,81.17
2019-04-22T05:42:56.557Z,91.53
2019-04-22T05:45:27.610Z,93.50
2019-04-22T05:47:59.514Z,94.80
2019-04-22T05:50:23.948Z,108.00
2019-04-22T05:52:57.063Z,101.27
2019-04-22T05:55:48.504Z,104.77
2019-04-22T06:03:04.112Z,102.97
2019-04-22T06:05:38.662Z,105.43
2019-04-22T06:08:04.077Z,106.00
2019-04-22T06:13:04.460Z,100.60
2019-04-22T06:15:39.009Z,117.63
2019-04-22T06:18:22.827Z,89.33
2019-04-22T06:20:53.167Z,84.87
2019-04-22T06:23:26.119Z,80.97
2019-04-22T06:26:05.297Z,82.43
2019-04-22T06:28:29.112Z,84.33
2019-04-22T06:30:57.558Z,79.55
2019-04-22T06:35:56.302Z,75.73
2019-04-22T06:40:55.294Z,71.33
2019-04-22T06:43:26.298Z,67.73
2019-04-22T06:45:51.745Z,62.13
2019-04-22T06:48:28.454Z,61.93
2019-04-22T06:50:53.955Z,68.33
2019-04-22T06:53:28.199Z,59.20
2019-04-22T06:55:51.444Z,67.17
2019-04-22T06:58:21.544Z,58.97
2019-04-22T07:00:59.409Z,61.92
2019-04-22T07:05:59.954Z,66.15
2019-04-22T07:08:59.270Z,57.77
2019-04-22T07:13:34.384Z,63.50
2019-04-22T07:16:00.406Z,61.83
2019-04-22T07:18:37.268Z,58.40
2019-04-22T07:21:01.510Z,59.73
2019-04-22T07:23:37.535Z,60.43
2019-04-22T07:25:58.421Z,52.80
2019-04-22T07:28:23.419Z,57.90
2019-04-22T07:31:08.095Z,58.13
2019-04-22T07:36:27.755Z,46.83
2019-04-22T07:38:32.768Z,49.43
2019-04-22T07:40:59.362Z,74.10
2019-04-22T07:46:00.672Z,44.37
2019-04-22T07:48:43.434Z,43.63
2019-04-22T07:53:33.803Z,48.17
2019-04-22T07:56:06.340Z,43.57
2019-04-22T07:58:36.009Z,46.20
2019-04-22T08:01:12.335Z,40.27
2019-04-22T08:03:47.738Z,40.03
2019-04-22T08:08:37.602Z,36.63
2019-04-22T08:11:21.560Z,39.25
2019-04-22T08:13:34.169Z,36.00
2019-04-22T08:16:10.590Z,34.53
2019-04-22T08:18:57.621Z,33.40
2019-04-22T08:21:22.216Z,33.20
2019-04-22T08:23:44.733Z,34.73
2019-04-22T08:26:04.866Z,37.43
2019-04-22T08:28:50.143Z,32.80
2019-04-22T08:31:14.579Z,29.17
2019-04-22T08:33:41.398Z,29.17
2019-04-22T08:36:17.742Z,26.90
2019-04-22T08:38:50.745Z,24.30
2019-04-22T08:41:32.112Z,30.37
2019-04-22T08:44:05.422Z,23.43
2019-04-22T08:46:25.598Z,35.27
2019-04-22T08:48:52.821Z,22.53
2019-04-22T08:51:20.961Z,22.93
2019-04-22T08:53:57.316Z,19.60
2019-04-22T08:56:29.827Z,17.60
2019-04-22T09:01:23.840Z,19.03
2019-04-22T09:03:54.971Z,17.62
2019-04-22T09:06:34.180Z,17.03
2019-04-22T09:08:54.099Z,16.40
2019-04-22T09:11:33.766Z,16.07
2019-04-22T09:13:55.826Z,16.80
2019-04-22T09:16:28.223Z,13.47
2019-04-22T09:18:56.180Z,13.37
2019-04-22T09:21:26.486Z,15.03
2019-04-22T09:24:02.255Z,13.00
2019-04-22T09:26:24.009Z,13.33
2019-04-22T09:29:02.849Z,12.20
2019-04-22T09:31:24.254Z,9.70
2019-04-22T09:33:51.491Z,13.97
2019-04-22T09:38:57.971Z,7.40
2019-04-22T09:41:27.155Z,27.57
2019-04-22T09:43:56.934Z,7.87
2019-04-22T09:46:28.275Z,8.73
2019-04-22T09:49:05.008Z,6.90
2019-04-22T09:51:26.882Z,7.53
2019-04-22T09:54:00.998Z,6.37
2019-04-22T09:56:31.892Z,6.87
2019-04-22T09:58:58.872Z,7.13
2019-04-22T10:11:32.606Z,6.73
2019-04-22T10:13:58.714Z,8.40
2019-04-22T10:19:04.360Z,6.57
2019-04-22T10:21:40.274Z,7.50
2019-04-22T10:24:03.427Z,5.73
2019-04-22T10:29:08.549Z,7.65
2019-04-22T10:31:40.631Z,6.08
2019-04-22T10:33:56.040Z,5.53
2019-04-22T10:36:10.741Z,6.15
2019-04-22T10:38:40.215Z,6.58
2019-04-22T10:41:10.227Z,7.37
2019-04-22T10:43:39.166Z,6.17
2019-04-22T10:46:08.236Z,7.67
2019-04-22T10:48:36.999Z,10.63
2019-04-22T10:51:06.542Z,11.93
2019-04-22T10:53:35.562Z,7.22
2019-04-22T10:56:05.220Z,5.30
2019-04-22T10:58:36.338Z,8.63
2019-04-22T11:01:05.329Z,7.83
2019-04-22T11:03:35.214Z,13.03
2019-04-22T11:06:05.510Z,17.90
2019-04-22T11:08:44.494Z,47.77
2019-04-22T11:11:18.940Z,13.62
2019-04-22T11:13:35.987Z,6.42
2019-04-22T11:16:05.534Z,9.00
2019-04-22T11:18:35.387Z,6.28
2019-04-22T11:24:00.709Z,5.80
2019-04-22T11:26:30.202Z,8.60
2019-04-22T11:29:03.490Z,5.57
2019-04-22T11:31:30.570Z,10.75
2019-04-22T11:34:00.640Z,6.65
2019-04-22T11:36:30.796Z,7.53
2019-04-22T11:39:03.547Z,66.60
2019-04-22T11:41:31.070Z,27.73
2019-04-22T11:44:01.193Z,7.97
2019-04-22T11:46:31.405Z,26.95
2019-04-22T11:49:00.344Z,17.77
2019-04-22T11:51:29.807Z,23.67
2019-04-22T11:53:58.806Z,10.62
2019-04-22T11:56:27.554Z,11.25
2019-04-22T11:58:57.050Z,22.20
2019-04-22T12:01:26.688Z,11.75
2019-04-22T12:03:55.796Z,7.20
2019-04-22T12:06:24.448Z,6.73
2019-04-22T12:08:54.157Z,9.90
2019-04-22T12:11:23.040Z,6.30
2019-04-22T12:13:51.873Z,7.28
2019-04-22T12:16:21.279Z,6.07
2019-04-22T12:18:51.216Z,6.05
2019-04-22T12:21:21.326Z,16.02
2019-04-22T12:23:50.921Z,9.28
2019-04-22T12:26:21.522Z,7.08
2019-04-22T12:28:50.984Z,6.63
2019-04-22T12:31:19.741Z,6.35
2019-04-22T12:33:49.311Z,6.92
2019-04-22T12:36:18.396Z,9.98
2019-04-22T12:38:47.544Z,7.95
2019-04-22T12:41:17.831Z,5.55
2019-04-22T12:43:47.385Z,7.28
2019-04-22T12:46:16.441Z,7.40
2019-04-22T12:48:47.738Z,5.73
2019-04-22T12:51:16.524Z,5.95
2019-04-22T12:53:46.286Z,7.27
2019-04-22T12:56:15.422Z,10.03
2019-04-22T12:58:45.790Z,6.33
2019-04-22T13:01:15.109Z,7.37
2019-04-22T13:03:44.671Z,8.10
2019-04-22T13:06:14.222Z,7.03
2019-04-22T13:08:43.589Z,7.10
2019-04-22T13:11:16.015Z,7.57
2019-04-22T13:13:42.917Z,6.95
2019-04-22T13:16:13.217Z,8.28
2019-04-22T13:18:50.245Z,8.25
2019-04-22T13:21:15.000Z,8.46
2019-04-22T13:23:44.514Z,11.40
2019-04-22T13:26:14.960Z,6.47
2019-04-22T13:28:44.996Z,5.60
2019-04-22T13:31:13.959Z,10.63
2019-04-22T13:33:43.034Z,8.95
2019-04-22T13:36:13.187Z,6.78
2019-04-22T13:38:42.928Z,8.63
2019-04-22T13:41:26.146Z,6.12
2019-04-22T13:43:42.911Z,5.60
2019-04-22T13:46:12.439Z,6.37
2019-04-22T13:49:09.711Z,8.10
2019-04-22T13:54:37.260Z,5.05
2019-04-22T13:56:30.414Z,5.67
2019-04-22T13:58:54.080Z,6.05
2019-04-22T14:01:14.708Z,5.62
2019-04-22T14:03:56.498Z,8.68
2019-04-22T14:06:32.106Z,8.08
2019-04-22T14:09:01.154Z,6.50
2019-04-22T14:11:37.634Z,7.60
2019-04-22T14:14:02.757Z,6.33
2019-04-22T14:16:33.042Z,19.12
2019-04-22T14:19:02.091Z,10.18
2019-04-22T14:21:30.728Z,16.17
2019-04-22T14:24:00.373Z,7.47
2019-04-22T14:26:44.233Z,5.55
2019-04-22T14:28:59.980Z,7.67
2019-04-22T14:31:28.761Z,4.73
2019-04-22T14:34:00.975Z,6.65
2019-04-22T14:36:27.607Z,6.57
2019-04-22T14:38:57.665Z,9.70
2019-04-22T14:41:40.591Z,6.90
2019-04-22T14:44:56.423Z,6.83
2019-04-22T14:46:58.235Z,9.45
2019-04-22T14:49:24.302Z,5.90
2019-04-22T14:51:49.641Z,9.23
2019-04-22T14:54:13.787Z,5.72
2019-04-22T14:56:28.639Z,9.38
2019-04-22T14:58:58.719Z,5.00
2019-04-22T15:01:28.917Z,8.95
2019-04-22T15:03:58.656Z,4.80
2019-04-22T15:06:28.467Z,3.87
2019-04-22T15:08:59.255Z,22.17
2019-04-22T15:11:29.037Z,14.00
2019-04-22T15:13:59.122Z,5.05
2019-04-22T15:16:48.822Z,7.42
2019-04-22T15:19:20.153Z,7.33
2019-04-22T15:21:48.679Z,4.80
2019-04-22T15:24:25.080Z,7.62
2019-04-22T15:26:56.317Z,10.55
2019-04-22T15:29:25.393Z,9.37
2019-04-22T15:31:55.543Z,9.80
2019-04-22T15:34:25.005Z,4.67
2019-04-22T15:36:54.077Z,5.08
2019-04-22T15:39:23.162Z,4.58
2019-04-22T15:42:00.464Z,3.83
2019-04-22T15:44:22.102Z,4.78
2019-04-22T15:46:50.965Z,4.42
2019-04-22T15:49:20.117Z,4.58
2019-04-22T15:51:48.918Z,5.35
2019-04-22T15:54:17.613Z,5.65
2019-04-22T15:56:46.563Z,4.20
2019-04-22T15:59:31.251Z,4.00
2019-04-22T16:01:48.623Z,4.40
2019-04-22T16:04:18.746Z,10.55
2019-04-22T16:06:47.562Z,6.30
2019-04-22T16:09:17.313Z,3.40
2019-04-22T16:11:47.635Z,8.20
2019-04-22T16:14:27.483Z,10.70
2019-04-22T16:16:50.376Z,6.62
2019-04-22T16:19:21.288Z,8.53
2019-04-22T16:21:56.594Z,4.00
2019-04-22T16:24:27.902Z,5.20
2019-04-22T16:26:58.286Z,5.37
2019-04-22T16:29:27.493Z,4.30
2019-04-22T16:31:57.549Z,6.75
2019-04-22T16:34:27.248Z,4.80
2019-04-22T16:36:56.746Z,4.42
2019-04-22T16:39:26.749Z,3.77
2019-04-22T16:41:56.883Z,5.97
2019-04-22T16:44:26.844Z,7.37
2019-04-22T16:46:55.538Z,3.02
2019-04-22T16:49:25.500Z,8.10
2019-04-22T16:51:54.287Z,4.22
2019-04-22T16:54:24.227Z,7.25
2019-04-22T16:56:54.221Z,6.25
2019-04-22T16:59:22.840Z,3.77
2019-04-22T17:01:54.462Z,8.13
2019-04-22T17:04:38.580Z,17.27
2019-04-22T17:07:08.887Z,8.05
2019-04-22T17:09:37.578Z,8.23
2019-04-22T17:12:06.216Z,4.53
2019-04-22T17:14:43.531Z,6.35
2019-04-22T17:17:06.562Z,5.75
2019-04-22T17:19:35.505Z,4.00
2019-04-22T17:22:05.754Z,5.90
2019-04-22T17:24:35.434Z,8.13
2019-04-22T17:27:06.432Z,3.37
2019-04-22T17:29:36.589Z,3.62
2019-04-22T17:32:11.748Z,4.78
2019-04-22T17:34:36.214Z,3.55
2019-04-22T17:37:11.468Z,5.32
2019-04-22T17:39:46.425Z,5.40
2019-04-22T17:42:25.128Z,4.67
2019-04-22T17:45:02.662Z,19.60
2019-04-22T17:47:29.022Z,5.50
2019-04-22T17:50:10.426Z,6.42
2019-04-22T17:52:36.407Z,3.22
2019-04-22T17:55:07.530Z,5.78
2019-04-22T17:57:34.550Z,3.58
2019-04-22T18:00:06.200Z,8.40
2019-04-22T18:02:32.206Z,5.90
2019-04-22T18:04:53.318Z,4.25
2019-04-22T18:07:41.187Z,4.43
2019-04-22T18:12:43.828Z,6.58
2019-04-22T18:15:11.400Z,7.12
2019-04-22T18:17:41.636Z,5.00
2019-04-22T18:20:04.624Z,4.72
2019-04-22T18:22:29.318Z,7.60
2019-04-22T18:25:02.223Z,4.10
2019-04-22T18:30:05.097Z,6.22
2019-04-22T18:32:37.969Z,4.80
2019-04-22T18:35:11.754Z,13.03
2019-04-22T18:37:46.982Z,7.20
2019-04-22T18:40:14.868Z,14.80
2019-04-22T18:42:46.337Z,6.83
2019-04-22T18:45:29.788Z,5.33
2019-04-22T18:47:38.770Z,8.43
2019-04-22T18:50:08.710Z,6.40
2019-04-22T18:53:03.670Z,8.25
2019-04-22T18:55:31.975Z,4.97
2019-04-22T18:58:09.019Z,4.57
2019-04-22T19:00:34.225Z,4.20
2019-04-22T19:03:13.133Z,4.60
2019-04-22T19:05:55.493Z,6.67
2019-04-22T19:08:29.200Z,7.33
2019-04-22T19:11:02.475Z,8.77
2019-04-22T19:13:54.475Z,4.80
2019-04-22T19:16:14.315Z,11.73
2019-04-22T19:18:36.438Z,5.43
2019-04-22T19:21:07.879Z,5.03
2019-04-22T19:23:33.210Z,6.43
2019-04-22T19:26:10.072Z,4.70
2019-04-22T19:33:49.364Z,3.60
2019-04-22T19:36:19.293Z,3.17
2019-04-22T19:38:34.070Z,10.17
2019-04-22T19:41:20.044Z,4.27
2019-04-22T19:43:47.324Z,3.80
2019-04-22T19:46:12.994Z,4.70
2019-04-22T19:48:45.016Z,4.15
2019-04-22T19:51:23.341Z,9.43
2019-04-22T19:53:49.419Z,7.40
2019-04-22T19:56:17.801Z,17.53
2019-04-22T19:58:47.645Z,3.85
2019-04-22T20:01:25.931Z,7.40
2019-04-22T20:04:13.159Z,4.70
2019-04-22T20:06:41.234Z,33.67
2019-04-22T20:09:13.674Z,4.60
2019-04-22T20:11:41.771Z,2.57
2019-04-22T20:14:12.055Z,5.35
2019-04-22T20:16:41.239Z,26.70
2019-04-22T20:19:19.317Z,5.30
2019-04-22T20:21:49.345Z,5.17
2019-04-22T20:24:02.161Z,6.25
2019-04-22T20:26:50.095Z,5.27
2019-04-22T20:29:21.022Z,4.77
2019-04-22T20:31:50.288Z,3.40
2019-04-22T20:34:22.306Z,3.77
2019-04-22T20:37:01.890Z,3.13
2019-04-22T20:39:10.863Z,5.72
2019-04-22T20:41:43.260Z,3.97
2019-04-22T20:44:24.665Z,5.30
2019-04-22T20:46:44.670Z,5.27
2019-04-22T20:49:22.331Z,3.60
2019-04-22T20:54:17.671Z,5.80
2019-04-22T20:56:45.204Z,7.25
2019-04-22T20:59:19.441Z,6.57
2019-04-22T21:02:01.939Z,3.63
2019-04-22T21:04:32.284Z,11.03
2019-04-22T21:07:04.987Z,16.33
2019-04-22T21:09:37.961Z,6.77
2019-04-22T21:12:05.138Z,5.63
2019-04-22T21:14:32.138Z,6.37
2019-04-22T21:17:13.046Z,9.47
2019-04-22T21:19:47.642Z,4.23
2019-04-22T21:22:16.230Z,6.40
2019-04-22T21:24:40.228Z,2.83
2019-04-22T21:32:21.754Z,7.83
2019-04-22T21:34:52.843Z,3.43
2019-04-22T21:37:26.836Z,5.03
2019-04-22T21:39:50.839Z,4.30
2019-04-22T21:42:24.154Z,3.87
2019-04-22T21:44:49.670Z,3.67
2019-04-22T21:47:30.093Z,2.60
2019-04-22T21:50:09.843Z,4.70
2019-04-22T21:52:24.942Z,3.63
2019-04-22T21:54:59.692Z,6.17
2019-04-22T21:57:46.119Z,3.77
2019-04-22T21:59:58.173Z,2.67
2019-04-22T22:02:28.075Z,3.43
2019-04-22T22:04:54.250Z,3.90
2019-04-22T22:07:14.412Z,3.77
2019-04-22T22:10:01.439Z,2.75
2019-04-22T22:12:33.331Z,3.07
2019-04-22T22:15:04.104Z,2.63
2019-04-22T22:17:27.781Z,2.30
2019-04-22T22:19:57.800Z,3.30
2019-04-22T22:25:01.242Z,3.03
2019-04-22T22:27:31.157Z,4.87
2019-04-22T22:30:27.416Z,4.60
2019-04-22T22:32:35.401Z,4.10
2019-04-22T22:35:03.154Z,2.93
2019-04-22T22:37:21.989Z,3.42
2019-04-22T22:39:51.350Z,2.90
2019-04-22T22:42:25.057Z,5.60
2019-04-22T22:44:48.478Z,7.57
2019-04-22T22:47:30.266Z,2.07
2019-04-22T22:50:03.055Z,4.27
2019-04-22T22:52:53.660Z,4.70
2019-04-22T22:55:08.784Z,2.30
2019-04-22T22:57:38.277Z,19.13
2019-04-22T23:00:03.842Z,4.70
2019-04-22T23:02:36.875Z,3.77
2019-04-22T23:05:09.669Z,3.77
2019-04-22T23:07:40.528Z,3.70
2019-04-22T23:10:07.935Z,5.00
2019-04-22T23:12:55.604Z,4.63
2019-04-22T23:15:06.277Z,2.40
2019-04-22T23:17:25.423Z,3.40
2019-04-22T23:19:51.767Z,2.62
2019-04-22T23:22:28.521Z,3.47
2019-04-22T23:25:08.047Z,2.58
2019-04-22T23:27:42.078Z,2.33
2019-04-22T23:30:17.036Z,5.00
2019-04-22T23:32:51.766Z,5.90
2019-04-22T23:35:33.869Z,8.25
2019-04-22T23:38:04.847Z,8.70
2019-04-22T23:40:38.490Z,3.57
2019-04-22T23:43:09.050Z,3.97
2019-04-22T23:45:41.694Z,3.90
2019-04-22T23:48:05.931Z,3.10
2019-04-22T23:50:41.246Z,4.63
2019-04-22T23:53:08.682Z,5.50
2019-04-22T23:55:46.388Z,5.37
2019-04-22T23:58:11.128Z,12.00
